Time;durP1;ratioP1;P1;durP2;ratioP2;P2;SDS_P1;SDS_P2;PMS_P1;PMS_P2;Temp;Humidity;BMP_temperature;BMP_pressure;BME280_temperature;BME280_humidity;BME280_pressure;Samples;Min_cycle;Max_cycle;Signal;HPM_P1;HPM_P2
2022/12/04 00:05:42;;;;;;;90.90;41.50;;;;;;;1.10;95.40;99191.40;419730;1307;111283;-39
2022/12/04 00:15:49;;;;;;;76.90;37.50;;;;;;;1.14;95.42;99191.67;419739;1295;108559;-39
2022/12/04 00:26:00;;;;;;;72.10;36.60;;;;;;;1.16;95.23;99205.20;419825;1301;97963;-38
2022/12/04 00:36:05;;;;;;;69.10;36.20;;;;;;;1.23;95.27;99208.64;419771;1302;107953;-39
2022/12/04 00:46:12;;;;;;;87.90;42.00;;;;;;;1.25;95.39;99212.32;419915;1305;98838;-38
2022/12/04 00:56:22;;;;;;;71.40;35.40;;;;;;;1.17;95.45;99201.11;419959;1302;110915;-39
2022/12/04 01:06:32;;;;;;;62.00;30.40;;;;;;;1.17;95.13;99188.27;419738;1295;106515;-40
2022/12/04 01:16:40;;;;;;;66.20;32.70;;;;;;;1.17;95.17;99175.88;419848;1301;99294;-38
2022/12/04 01:26:47;;;;;;;55.60;29.30;;;;;;;1.19;95.33;99177.13;419714;1300;109417;-39
2022/12/04 01:36:54;;;;;;;62.40;30.60;;;;;;;1.19;95.24;99173.65;419658;1302;99265;-39
2022/12/04 01:47:02;;;;;;;83.40;37.10;;;;;;;1.13;95.35;99179.23;419728;1301;112054;-39
2022/12/04 01:57:12;;;;;;;84.30;38.70;;;;;;;1.05;95.45;99170.91;419770;1293;108618;-39
2022/12/04 02:07:19;;;;;;;69.90;34.30;;;;;;;1.05;95.36;99159.48;419685;1302;99233;-39
2022/12/04 02:17:26;;;;;;;61.40;30.20;;;;;;;1.12;95.37;99163.96;420839;1273;106159;-38
2022/12/04 02:27:44;;;;;;;60.60;31.80;;;;;;;1.18;95.26;99160.90;419692;1296;100197;-39
2022/12/04 02:37:55;;;;;;;66.70;31.20;;;;;;;1.23;95.39;99156.21;419735;1294;111341;-38
2022/12/04 02:48:03;;;;;;;61.40;30.20;;;;;;;1.27;95.44;99156.26;419679;1294;109106;-39
2022/12/04 02:58:11;;;;;;;60.60;30.10;;;;;;;1.30;95.56;99145.67;419721;1294;99246;-39
2022/12/04 03:08:18;;;;;;;93.00;38.50;;;;;;;1.27;95.42;99137.56;419695;1303;106894;-38
2022/12/04 03:18:29;;;;;;;71.70;35.60;;;;;;;1.17;95.39;99149.59;419749;1288;98077;-39
2022/12/04 03:28:43;;;;;;;64.50;29.60;;;;;;;1.21;95.30;99155.23;419770;1294;109818;-39
2022/12/04 03:38:52;;;;;;;57.30;28.40;;;;;;;1.24;95.47;99161.91;419777;1294;109231;-40
2022/12/04 03:49:06;;;;;;;47.10;25.00;;;;;;;1.27;95.49;99150.23;419678;1300;98873;-40
2022/12/04 03:59:20;;;;;;;47.70;25.80;;;;;;;1.32;95.51;99149.98;419766;1302;109376;-38
2022/12/04 04:09:29;;;;;;;80.20;37.00;;;;;;;1.30;95.53;99149.75;419837;1295;99237;-39
2022/12/04 04:30:04;;;;;;;38.10;20.20;;;;;;;1.20;95.46;99159.09;419962;1294;108041;-39
2022/12/04 04:40:09;;;;;;;47.50;23.20;;;;;;;1.19;95.31;99156.83;419732;1294;99249;-39
2022/12/04 04:50:19;;;;;;;40.80;20.50;;;;;;;1.15;95.57;99149.85;419749;1301;107590;-39
2022/12/04 05:00:27;;;;;;;34.50;19.10;;;;;;;1.15;95.48;99144.99;419790;1295;99289;-39
2022/12/04 05:10:34;;;;;;;35.30;19.00;;;;;;;1.11;95.42;99148.23;419705;1304;111318;-40
2022/12/04 05:30:55;;;;;;;38.30;20.40;;;;;;;0.97;95.47;99135.52;419831;1297;99193;-39
2022/12/04 05:41:04;;;;;;;31.00;15.60;;;;;;;0.91;95.58;99131.86;419698;1294;107004;-39
2022/12/04 05:51:10;;;;;;;;;;;;;;;0.89;95.65;99139.61;419805;1301;98059;-40
2022/12/04 06:01:17;;;;;;;38.00;19.00;;;;;;;0.86;95.63;99145.77;419682;1293;110734;-38
2022/12/04 06:11:27;;;;;;;38.10;18.20;;;;;;;0.84;95.70;99144.11;419557;1297;107346;-39
2022/12/04 06:21:36;;;;;;;41.60;21.30;;;;;;;0.81;95.83;99144.92;419832;1303;99249;-40
2022/12/04 06:31:43;;;;;;;39.50;19.90;;;;;;;0.82;95.67;99147.55;419784;1302;107991;-39
2022/12/04 06:41:50;;;;;;;41.20;20.30;;;;;;;0.84;95.68;99165.77;419705;1301;98873;-39
2022/12/04 06:51:57;;;;;;;38.40;21.10;;;;;;;0.84;95.60;99168.68;419861;1281;111930;-39
2022/12/04 07:02:05;;;;;;;43.50;22.50;;;;;;;0.88;95.82;99171.98;419658;1295;108350;-38
2022/12/04 07:12:12;;;;;;;50.30;22.30;;;;;;;0.88;95.67;99183.41;419575;1296;99140;-39
2022/12/04 07:22:19;;;;;;;63.40;28.40;;;;;;;0.81;95.86;99189.17;419656;1303;108498;-40
2022/12/04 07:32:27;;;;;;;48.70;25.10;;;;;;;0.77;96.01;99192.56;419652;1295;99242;-39
2022/12/04 07:42:34;;;;;;;54.30;27.20;;;;;;;0.80;95.94;99188.23;419766;1304;111212;-38
2022/12/04 07:52:41;;;;;;;51.40;25.30;;;;;;;0.88;95.93;99178.98;419719;1303;107700;-40
2022/12/04 08:02:49;;;;;;;42.30;22.70;;;;;;;0.96;96.12;99173.93;419825;1302;98362;-39
2022/12/04 08:12:56;;;;;;;47.70;24.50;;;;;;;1.01;96.11;99181.44;419775;1295;108094;-39
2022/12/04 08:23:04;;;;;;;53.50;25.10;;;;;;;1.09;96.11;99196.02;419759;1294;99278;-39
2022/12/04 08:33:11;;;;;;;52.90;24.10;;;;;;;1.04;96.34;99199.81;419782;1302;112194;-40
2022/12/04 08:43:19;;;;;;;38.20;20.60;;;;;;;1.09;96.44;99196.41;419681;1303;107060;-39
2022/12/04 08:53:26;;;;;;;47.40;24.30;;;;;;;1.29;96.40;99194.19;419775;1290;99294;-39
2022/12/04 09:03:34;;;;;;;48.30;24.20;;;;;;;1.44;96.43;99188.59;419609;1294;107345;-40
2022/12/04 09:13:43;;;;;;;41.60;23.10;;;;;;;1.61;96.50;99184.13;419679;1295;99255;-40
2022/12/04 09:23:51;;;;;;;61.20;29.50;;;;;;;1.71;96.49;99180.67;419635;1304;110887;-39
2022/12/04 09:33:59;;;;;;;43.20;22.00;;;;;;;1.77;96.49;99174.54;419616;1294;107949;-39
2022/12/04 09:44:10;;;;;;;57.00;26.20;;;;;;;1.77;96.23;99162.23;419493;1294;98031;-40
2022/12/04 09:54:20;;;;;;;52.50;25.90;;;;;;;1.78;96.27;99161.41;419402;1302;108692;-39
2022/12/04 10:04:28;;;;;;;61.00;28.10;;;;;;;1.82;96.36;99156.88;419483;1294;98860;-38
2022/12/04 10:14:41;;;;;;;53.90;28.00;;;;;;;1.89;96.28;99154.23;419466;1294;111270;-41
2022/12/04 10:24:52;;;;;;;67.20;33.20;;;;;;;1.99;96.30;99143.94;419508;1294;108779;-39
2022/12/04 10:35:03;;;;;;;76.80;35.00;;;;;;;1.93;96.47;99144.23;419409;1297;117344;-40
2022/12/04 10:45:10;;;;;;;48.50;25.90;;;;;;;1.97;96.15;99149.21;419583;1293;107101;-40
2022/12/04 10:55:27;;;;;;;43.10;24.00;;;;;;;2.04;96.09;99142.20;419439;1294;98874;-39
2022/12/04 11:05:38;;;;;;;36.90;21.10;;;;;;;2.11;96.14;99148.08;419498;1300;111926;-39
2022/12/04 11:15:47;;;;;;;49.60;26.00;;;;;;;2.16;96.04;99138.13;419323;1302;431945;-38
2022/12/04 11:25:58;;;;;;;75.80;36.20;;;;;;;2.06;96.01;99136.46;419778;1293;99112;-39
2022/12/04 11:36:16;;;;;;;48.70;26.90;;;;;;;2.01;95.86;99133.50;419784;1294;106389;-39
2022/12/04 11:46:23;;;;;;;40.90;22.90;;;;;;;2.05;95.90;99129.09;419719;1294;99187;-39
2022/12/04 11:56:29;;;;;;;45.40;23.40;;;;;;;2.09;95.92;99117.65;419872;1302;112449;-39
2022/12/04 12:06:37;;;;;;;42.70;23.70;;;;;;;2.10;95.85;99117.22;419853;1304;107168;-39
2022/12/04 12:16:52;;;;;;;40.30;22.20;;;;;;;2.11;95.95;99102.27;419832;1287;98866;-39
2022/12/04 12:27:04;;;;;;;57.40;27.00;;;;;;;2.03;95.92;99111.65;419890;1295;107381;-39
2022/12/04 12:47:16;;;;;;;49.80;25.70;;;;;;;1.93;95.88;99101.45;419762;1302;110547;-39
2022/12/04 12:57:31;;;;;;;47.50;25.70;;;;;;;1.95;95.83;99111.66;419605;1287;107426;-40
2022/12/04 13:07:39;;;;;;;51.80;28.60;;;;;;;1.95;95.86;99123.30;419696;1294;98119;-40
2022/12/04 13:17:50;;;;;;;44.40;24.20;;;;;;;1.93;95.87;99114.14;419581;1301;107545;-40
2022/12/04 13:27:58;;;;;;;48.00;25.00;;;;;;;1.89;95.88;99110.83;419657;1304;99370;-40
2022/12/04 13:38:08;;;;;;;75.90;35.00;;;;;;;1.88;95.96;99112.77;419648;1302;111504;-39
2022/12/04 13:48:26;;;;;;;52.40;28.90;;;;;;;1.80;96.03;99116.59;419492;1294;108401;-39
2022/12/04 13:58:36;;;;;;;47.10;26.70;;;;;;;1.75;95.85;99120.02;419528;1303;98085;-40
2022/12/04 14:08:45;;;;;;;49.80;26.20;;;;;;;1.70;95.86;99112.55;419624;1302;107390;-40
2022/12/04 14:18:52;;;;;;;;;;;;;;;1.68;96.06;99111.22;419642;1301;99220;-39
2022/12/04 14:29:05;;;;;;;64.50;37.50;;;;;;;1.64;96.06;99102.45;419610;1302;111935;-38
2022/12/04 14:39:11;;;;;;;60.60;32.20;;;;;;;1.66;96.10;99105.61;419463;1300;106680;-40
2022/12/04 14:49:27;;;;;;;48.90;25.30;;;;;;;1.68;96.19;99108.84;419529;1294;97968;-40
2022/12/04 14:59:41;;;;;;;43.20;23.60;;;;;;;1.63;96.06;99113.90;419468;1294;108181;-38
2022/12/04 15:20:21;;;;;;;52.80;26.20;;;;;;;1.61;96.26;99100.86;419666;1293;110602;-39
2022/12/04 15:30:28;;;;;;;52.00;28.10;;;;;;;1.60;96.26;99107.89;419576;1303;105988;-40
2022/12/04 15:40:36;;;;;;;47.30;26.90;;;;;;;1.63;96.29;99114.41;419652;1294;99230;-39
2022/12/04 15:50:43;;;;;;;50.60;27.20;;;;;;;1.56;96.29;99109.17;419503;1304;109112;-39
2022/12/04 16:00:54;;;;;;;57.60;29.60;;;;;;;1.46;96.39;99124.50;419634;1287;98792;-40
2022/12/04 16:11:04;;;;;;;55.60;29.60;;;;;;;1.49;96.39;99123.69;419677;1292;111674;-39
2022/12/04 16:21:14;;;;;;;61.20;32.60;;;;;;;1.52;96.33;99120.50;419741;1295;108670;-39
2022/12/04 16:31:25;;;;;;;59.90;32.70;;;;;;;1.55;96.40;99105.52;419838;1294;98437;-39
2022/12/04 16:41:33;;;;;;;57.30;31.10;;;;;;;1.52;96.35;99123.46;419883;1295;108478;-39
2022/12/04 16:51:40;;;;;;;59.20;28.80;;;;;;;1.49;96.40;99108.71;419688;1304;98030;-39
2022/12/04 17:01:52;;;;;;;60.40;33.20;;;;;;;1.46;96.46;99116.48;419884;1304;111547;-38
2022/12/04 17:11:59;;;;;;;59.10;29.70;;;;;;;1.48;96.42;99114.70;419687;1298;108299;-38
2022/12/04 17:22:07;;;;;;;51.90;27.60;;;;;;;1.46;96.59;99119.09;419784;1302;99422;-39
2022/12/04 17:32:14;;;;;;;57.90;30.50;;;;;;;1.45;96.48;99120.48;419636;1302;106717;-38
2022/12/04 17:42:20;;;;;;;53.20;29.00;;;;;;;1.41;96.49;99127.67;419817;1293;98050;-39
2022/12/04 17:52:29;;;;;;;53.20;30.20;;;;;;;1.35;96.57;99120.94;419730;1296;113055;-39
2022/12/04 18:02:37;;;;;;;66.30;30.10;;;;;;;1.30;96.53;99134.64;419709;1293;106592;-39
2022/12/04 18:12:45;;;;;;;50.80;29.10;;;;;;;1.27;96.52;99133.39;419667;1302;99246;-39
2022/12/04 18:22:52;;;;;;;44.30;26.50;;;;;;;1.21;96.64;99135.23;419576;1300;108372;-39
2022/12/04 18:32:59;;;;;;;41.30;24.20;;;;;;;1.19;96.53;99122.91;419569;1302;98074;-40
2022/12/04 18:43:07;;;;;;;48.50;27.00;;;;;;;1.16;96.60;99121.33;419728;1301;112379;-39
2022/12/04 18:53:14;;;;;;;51.60;30.50;;;;;;;1.11;96.65;99119.55;419647;1296;108167;-39
2022/12/04 19:03:22;;;;;;;49.70;27.10;;;;;;;1.09;96.82;99117.44;419584;1295;101539;-38
2022/12/04 19:13:29;;;;;;;41.00;22.90;;;;;;;1.02;96.67;99109.27;419641;1301;108404;-39
2022/12/04 19:23:37;;;;;;;50.40;26.50;;;;;;;0.92;96.67;99115.83;419704;1304;99236;-39
2022/12/04 19:33:44;;;;;;;40.50;22.70;;;;;;;0.85;96.75;99128.16;419698;1302;112960;-39
2022/12/04 19:43:55;;;;;;;48.40;25.70;;;;;;;0.82;96.93;99135.48;419617;1293;108735;-39
2022/12/04 19:54:03;;;;;;;47.10;26.00;;;;;;;0.79;96.84;99136.29;419785;1307;99248;-39
2022/12/04 20:04:11;;;;;;;49.60;26.10;;;;;;;0.79;96.92;99131.91;419808;1293;107444;-38
2022/12/04 20:14:18;;;;;;;43.20;24.20;;;;;;;0.78;97.00;99127.30;419748;1300;99522;-39
2022/12/04 20:24:26;;;;;;;41.90;25.10;;;;;;;0.75;97.00;99140.10;419743;1302;112199;-40
2022/12/04 20:34:33;;;;;;;48.70;24.30;;;;;;;0.75;96.97;99130.08;419796;1288;107949;-40
2022/12/04 20:44:47;;;;;;;43.30;21.90;;;;;;;0.71;97.10;99134.61;419668;1299;98028;-39
2022/12/04 20:54:55;;;;;;;39.50;20.90;;;;;;;0.67;96.99;99127.96;419787;1294;108147;-39
2022/12/04 21:05:02;;;;;;;65.90;30.70;;;;;;;0.63;97.20;99114.67;419886;1302;98857;-38
2022/12/04 21:25:36;;;;;;;55.50;28.50;;;;;;;0.61;97.06;99109.08;419729;1294;108349;-39
2022/12/04 21:45:56;;;;;;;41.10;23.00;;;;;;;0.48;96.94;99111.27;419670;1299;109638;-40
2022/12/04 21:56:03;;;;;;;50.60;24.90;;;;;;;0.44;97.01;99103.37;419793;1301;99221;-39
2022/12/04 22:06:11;;;;;;;40.40;21.60;;;;;;;0.45;97.15;99108.09;419776;1295;112240;-39
2022/12/04 22:16:21;;;;;;;53.80;27.50;;;;;;;0.42;97.08;99110.16;419711;1294;106887;-39
2022/12/04 22:36:42;;;;;;;53.90;25.30;;;;;;;0.50;97.15;99114.70;419815;1288;108705;-39
2022/12/04 22:46:48;;;;;;;69.40;29.80;;;;;;;0.42;97.15;99105.22;419776;1302;98129;-39
2022/12/04 22:56:56;;;;;;;53.50;26.00;;;;;;;0.31;97.14;99100.11;419702;1295;112663;-40
2022/12/04 23:07:03;;;;;;;43.40;22.30;;;;;;;0.28;97.09;99094.38;419595;1300;108676;-40
2022/12/04 23:17:09;;;;;;;46.80;21.90;;;;;;;0.25;97.19;99089.77;419491;1287;429144;-39
2022/12/04 23:27:16;;;;;;;45.40;24.10;;;;;;;0.21;97.30;99088.14;419760;1294;109375;-37
2022/12/04 23:37:23;;;;;;;49.20;25.50;;;;;;;0.22;97.27;99084.92;419749;1295;99265;-39
2022/12/04 23:47:30;;;;;;;51.20;24.20;;;;;;;0.21;97.29;99079.45;419820;1301;110804;-39
2022/12/04 23:57:37;;;;;;;49.80;22.90;;;;;;;0.24;97.51;99073.12;419780;1302;107811;-39
